createdAt,value
2023-02-09T00:01:13.997Z,99357.69
2023-02-09T00:03:42.478Z,99359.47
2023-02-09T00:06:11.099Z,99355.91
2023-02-09T00:08:39.306Z,99352.31
2023-02-09T00:11:08.585Z,99355.88
2023-02-09T00:13:37.280Z,99351.41
2023-02-09T00:16:05.793Z,99354.09
2023-02-09T00:18:34.351Z,99354.09
2023-02-09T00:21:03.405Z,99355.88
2023-02-09T00:23:32.732Z,99355.88
2023-02-09T00:26:00.980Z,99350.50
2023-02-09T00:28:29.312Z,99343.34
2023-02-09T00:30:59.059Z,99345.13
2023-02-09T00:33:27.440Z,99337.09
2023-02-09T00:35:58.288Z,99332.63
2023-02-09T00:38:26.497Z,99337.97
2023-02-09T00:40:54.613Z,99337.09
2023-02-09T00:43:22.790Z,99332.63
2023-02-09T00:45:50.985Z,99336.22
2023-02-09T00:48:20.773Z,99336.22
2023-02-09T00:50:49.080Z,99332.63
2023-02-09T00:53:17.264Z,99334.44
2023-02-09T00:55:45.486Z,99324.59
2023-02-09T00:58:13.738Z,99323.69
2023-02-09T01:00:42.431Z,99326.38
2023-02-09T01:03:10.721Z,99313.84
2023-02-09T01:05:41.557Z,99312.06
2023-02-09T01:08:10.116Z,99324.59
2023-02-09T01:10:39.216Z,99312.97
2023-02-09T01:13:07.925Z,99310.28
2023-02-09T01:15:36.136Z,99312.97
2023-02-09T01:18:04.362Z,99309.41
2023-02-09T01:20:32.561Z,99312.06
2023-02-09T01:23:02.720Z,99310.34
2023-02-09T01:25:31.811Z,99306.75
2023-02-09T01:28:00.037Z,99308.56
2023-02-09T01:30:28.517Z,99303.19
2023-02-09T01:32:56.645Z,99303.19
2023-02-09T01:35:24.894Z,99304.09
2023-02-09T01:37:53.057Z,99305.88
2023-02-09T01:40:22.730Z,99303.19
2023-02-09T01:42:50.851Z,99304.13
2023-02-09T01:45:26.143Z,99302.34
2023-02-09T01:47:57.706Z,99300.56
2023-02-09T01:50:26.329Z,99289.84
2023-02-09T01:52:54.563Z,99287.16
2023-02-09T01:55:25.582Z,99288.09
2023-02-09T01:57:55.408Z,99284.47
2023-02-09T02:00:23.924Z,99278.25
2023-02-09T02:02:54.355Z,99272.91
2023-02-09T02:05:22.773Z,99272.91
2023-02-09T02:07:53.292Z,99277.34
2023-02-09T02:10:21.534Z,99269.31
2023-02-09T02:12:51.091Z,99260.38
2023-02-09T02:15:19.507Z,99253.22
2023-02-09T02:17:54.336Z,99257.75
2023-02-09T02:20:40.406Z,99251.44
2023-02-09T02:23:11.668Z,99255.97
2023-02-09T02:26:18.648Z,99255.06
2023-02-09T02:28:56.370Z,99251.50
2023-02-09T02:32:00.383Z,99254.16
2023-02-09T02:34:32.032Z,99244.34
2023-02-09T02:37:02.864Z,99247.03
2023-02-09T02:39:35.049Z,99242.56
2023-02-09T02:42:21.439Z,99239.81
2023-02-09T02:44:53.448Z,99241.66
2023-02-09T02:47:23.116Z,99238.06
2023-02-09T02:49:52.778Z,99230.94
2023-02-09T02:52:20.944Z,99234.50
2023-02-09T02:54:50.733Z,99229.19
2023-02-09T02:57:20.108Z,99225.56
2023-02-09T02:59:49.912Z,99218.47
2023-02-09T03:02:20.184Z,99211.28
2023-02-09T03:04:50.113Z,99209.53
2023-02-09T03:07:18.601Z,99211.28
2023-02-09T03:09:50.861Z,99203.25
2023-02-09T03:12:24.519Z,99202.34
2023-02-09T03:15:03.968Z,99198.78
2023-02-09T03:17:42.659Z,99198.78
2023-02-09T03:20:15.376Z,99191.63
2023-02-09T03:22:44.512Z,99202.41
2023-02-09T03:25:15.386Z,99194.38
2023-02-09T03:27:46.365Z,99191.69
2023-02-09T03:30:15.778Z,99190.78
2023-02-09T03:32:44.495Z,99190.78
2023-02-09T03:35:15.276Z,99190.78
2023-02-09T03:37:43.469Z,99181.84
2023-02-09T03:40:12.178Z,99189.00
2023-02-09T03:42:40.404Z,99189.00
2023-02-09T03:45:09.189Z,99193.47
2023-02-09T03:47:37.419Z,99187.22
2023-02-09T03:50:06.895Z,99187.22
2023-02-09T03:52:36.529Z,99189.91
2023-02-09T03:55:05.407Z,99187.22
2023-02-09T03:57:33.657Z,99187.22
2023-02-09T04:00:02.229Z,99180.13
2023-02-09T04:02:40.068Z,99189.97
2023-02-09T04:05:08.745Z,99180.13
2023-02-09T04:07:38.521Z,99185.47
2023-02-09T04:10:07.757Z,99179.19
2023-02-09T04:12:35.876Z,99185.47
2023-02-09T04:15:04.037Z,99193.53
2023-02-09T04:17:32.271Z,99182.81
2023-02-09T04:20:00.419Z,99185.47
2023-02-09T04:22:28.586Z,99189.03
2023-02-09T04:24:58.365Z,99191.69
2023-02-09T04:27:27.249Z,99190.78
2023-02-09T04:29:55.668Z,99182.81
2023-02-09T04:32:24.001Z,99189.06
2023-02-09T04:34:52.267Z,99189.97
2023-02-09T04:37:20.424Z,99185.50
2023-02-09T04:39:48.597Z,99175.72
2023-02-09T04:42:18.301Z,99180.19
2023-02-09T04:44:46.535Z,99182.81
2023-02-09T04:47:14.762Z,99177.47
2023-02-09T04:49:44.626Z,99185.50
2023-02-09T04:52:12.866Z,99184.66
2023-02-09T04:54:41.108Z,99183.78
2023-02-09T04:57:26.339Z,99190.88
2023-02-09T04:59:56.005Z,99199.81
2023-02-09T05:02:24.257Z,99193.63
2023-02-09T05:04:52.432Z,99189.19
2023-02-09T05:07:20.626Z,99194.59
2023-02-09T05:09:48.799Z,99201.78
2023-02-09T05:12:17.005Z,99199.19
2023-02-09T05:14:45.066Z,99202.75
2023-02-09T05:17:14.804Z,99204.47
2023-02-09T05:19:42.985Z,99201.72
2023-02-09T05:22:11.438Z,99199.94
2023-02-09T05:24:39.576Z,99202.69
2023-02-09T05:27:07.797Z,99212.47
2023-02-09T05:29:35.969Z,99208.88
2023-02-09T05:32:04.265Z,99210.53
2023-02-09T05:34:33.969Z,99211.50
2023-02-09T05:37:02.225Z,99218.59
2023-02-09T05:39:30.376Z,99213.22
2023-02-09T05:42:16.443Z,99212.31
2023-02-09T05:44:44.948Z,99218.53
2023-02-09T05:47:13.720Z,99228.31
2023-02-09T05:49:43.364Z,99228.31
2023-02-09T05:52:29.268Z,99232.78
2023-02-09T05:54:57.556Z,99225.69
2023-02-09T05:57:25.849Z,99230.22
2023-02-09T05:59:54.061Z,99227.59
2023-02-09T06:02:22.214Z,99224.91
2023-02-09T06:04:51.952Z,99221.28
2023-02-09T06:07:20.229Z,99223.06
2023-02-09T06:09:48.413Z,99220.38
2023-02-09T06:12:16.588Z,99219.47
2023-02-09T06:14:44.833Z,99225.72
2023-02-09T06:17:13.022Z,99219.47
2023-02-09T06:19:41.294Z,99221.22
2023-02-09T06:22:10.832Z,99223.88
2023-02-09T06:24:38.970Z,99228.31
2023-02-09T06:27:07.313Z,99232.84
2023-02-09T06:29:35.496Z,99235.53
2023-02-09T06:32:04.012Z,99242.66
2023-02-09T06:34:32.306Z,99241.66
2023-02-09T06:37:00.532Z,99243.38
2023-02-09T06:39:30.702Z,99248.69
2023-02-09T06:41:58.945Z,99255.81
2023-02-09T06:44:27.464Z,99253.97
2023-02-09T06:46:55.753Z,99251.25
2023-02-09T06:49:25.421Z,99261.94
2023-02-09T06:51:54.274Z,99258.28
2023-02-09T06:54:22.873Z,99258.25
2023-02-09T06:56:52.644Z,99260.91
2023-02-09T06:59:21.052Z,99266.28
2023-02-09T07:01:52.780Z,99260.78
2023-02-09T07:04:22.768Z,99261.66
2023-02-09T07:06:50.904Z,99265.25
2023-02-09T07:09:19.147Z,99267.03
2023-02-09T07:11:47.431Z,99269.66
2023-02-09T07:14:17.234Z,99256.19
2023-02-09T07:16:45.373Z,99262.44
2023-02-09T07:19:13.555Z,99257.97
2023-02-09T07:21:41.928Z,99272.28
2023-02-09T07:24:10.157Z,99268.91
2023-02-09T07:26:38.406Z,99268.97
2023-02-09T07:29:06.704Z,99263.66
2023-02-09T07:31:36.682Z,99254.78
2023-02-09T07:34:05.071Z,99248.53
2023-02-09T07:36:33.254Z,99250.31
2023-02-09T07:39:01.665Z,99249.41
2023-02-09T07:41:30.064Z,99253.00
2023-02-09T07:43:58.880Z,99244.97
2023-02-09T07:46:27.172Z,99250.31
2023-02-09T07:48:59.468Z,99253.88
2023-02-09T07:51:29.906Z,99251.22
2023-02-09T07:53:58.735Z,99259.25
2023-02-09T07:56:28.694Z,99254.78
2023-02-09T07:58:57.215Z,99254.78
2023-02-09T08:01:25.917Z,99252.94
2023-02-09T08:03:54.204Z,99246.66
2023-02-09T08:06:36.271Z,99254.72
2023-02-09T08:09:09.340Z,99253.88
2023-02-09T08:11:40.431Z,99251.19
2023-02-09T08:14:12.125Z,99246.66
2023-02-09T08:16:40.399Z,99246.66
2023-02-09T08:19:12.018Z,99239.50
2023-02-09T08:21:43.071Z,99234.13
2023-02-09T08:24:11.300Z,99235.03
2023-02-09T08:26:39.537Z,99231.47
2023-02-09T08:29:07.933Z,99236.78
2023-02-09T08:31:36.219Z,99228.78
2023-02-09T08:34:04.960Z,99234.13
2023-02-09T08:36:34.472Z,99229.66
2023-02-09T08:39:05.418Z,99232.34
2023-02-09T08:41:34.608Z,99231.47
2023-02-09T08:44:02.761Z,99228.72
2023-02-09T08:46:31.188Z,99227.88
2023-02-09T08:48:59.462Z,99222.50
2023-02-09T08:51:27.688Z,99226.03
2023-02-09T08:53:55.840Z,99233.22
2023-02-09T08:56:25.733Z,99222.50
2023-02-09T08:58:54.000Z,99220.66
2023-02-09T09:01:22.386Z,99228.72
2023-02-09T09:03:50.676Z,99225.13
2023-02-09T09:06:19.056Z,99221.53
2023-02-09T09:08:47.250Z,99219.81
2023-02-09T09:11:15.345Z,99221.53
2023-02-09T09:13:45.049Z,99215.28
2023-02-09T09:16:16.687Z,99213.41
2023-02-09T09:18:45.679Z,99209.84
2023-02-09T09:21:14.309Z,99216.13
2023-02-09T09:23:42.637Z,99213.44
2023-02-09T09:26:10.802Z,99220.63
2023-02-09T09:28:39.345Z,99226.00
2023-02-09T09:31:12.797Z,99224.16
2023-02-09T09:33:41.856Z,99223.22
2023-02-09T09:36:10.550Z,99220.59
2023-02-09T09:38:39.328Z,99219.69
2023-02-09T09:41:08.425Z,99222.31
2023-02-09T09:43:37.695Z,99224.09
2023-02-09T09:46:06.765Z,99218.72
2023-02-09T09:48:42.143Z,99216.88
2023-02-09T09:51:13.183Z,99210.66
2023-02-09T09:53:41.482Z,99208.84
2023-02-09T09:56:10.383Z,99203.47
2023-02-09T09:58:41.295Z,99203.47
2023-02-09T10:01:13.630Z,99202.63
2023-02-09T10:03:43.358Z,99203.47
2023-02-09T10:06:15.305Z,99187.38
2023-02-09T10:08:44.586Z,99187.38
2023-02-09T10:11:13.352Z,99191.88
2023-02-09T10:13:44.381Z,99188.25
2023-02-09T10:16:18.463Z,99184.66
2023-02-09T10:18:51.121Z,99182.00
2023-02-09T10:21:19.459Z,99175.66
2023-02-09T10:23:48.829Z,99178.28
2023-02-09T10:26:23.110Z,99177.38
2023-02-09T10:28:52.559Z,99167.50
2023-02-09T10:31:25.310Z,99163.06
2023-02-09T10:33:57.554Z,99162.16
2023-02-09T10:36:28.291Z,99152.38
2023-02-09T10:39:11.577Z,99149.69
2023-02-09T10:41:40.882Z,99148.75
2023-02-09T10:44:09.852Z,99143.44
2023-02-09T10:46:38.936Z,99129.13
2023-02-09T10:49:29.424Z,99134.50
2023-02-09T10:52:17.293Z,99122.91
2023-02-09T10:54:46.191Z,99121.09
2023-02-09T10:57:25.152Z,99118.38
2023-02-09T10:59:54.240Z,99119.22
2023-02-09T11:02:38.868Z,99101.31
2023-02-09T11:05:27.547Z,99107.56
2023-02-09T11:07:57.869Z,99096.91
2023-02-09T11:10:26.173Z,99092.38
2023-02-09T11:12:54.419Z,99098.69
2023-02-09T11:15:24.727Z,99085.28
2023-02-09T11:17:54.946Z,99088.03
2023-02-09T11:20:37.353Z,99093.38
2023-02-09T11:23:21.560Z,99090.69
2023-02-09T11:25:51.600Z,99082.66
2023-02-09T11:28:47.105Z,99082.66
2023-02-09T11:31:22.650Z,99071.91
2023-02-09T11:33:54.821Z,99064.72
2023-02-09T11:36:33.786Z,99065.66
2023-02-09T11:39:03.106Z,99058.50
2023-02-09T11:41:50.024Z,99056.66
2023-02-09T11:44:23.491Z,99051.28
2023-02-09T11:46:52.354Z,99045.91
2023-02-09T11:49:21.223Z,99045.91
2023-02-09T11:51:50.837Z,99045.00
2023-02-09T11:54:19.957Z,99032.47
2023-02-09T11:56:49.644Z,99040.47
2023-02-09T11:59:20.041Z,99034.22
2023-02-09T12:01:50.043Z,99032.41
2023-02-09T12:04:20.041Z,99031.38
2023-02-09T12:06:51.456Z,99016.16
2023-02-09T12:09:32.868Z,99025.06
2023-02-09T12:12:11.636Z,99018.81
2023-02-09T12:14:49.748Z,99010.81
2023-02-09T12:17:19.464Z,99010.88
2023-02-09T12:19:55.091Z,99015.34
2023-02-09T12:22:46.428Z,99010.81
2023-02-09T12:25:19.204Z,99009.88
2023-02-09T12:28:05.959Z,98999.22
2023-02-09T12:31:05.729Z,99002.88
2023-02-09T12:33:35.535Z,99001.00
2023-02-09T12:36:05.460Z,98997.44
2023-02-09T12:38:55.443Z,98996.53
2023-02-09T12:41:25.321Z,98993.03
2023-02-09T12:43:55.177Z,98986.84
2023-02-09T12:46:25.083Z,98983.22
2023-02-09T12:49:03.357Z,98971.59
2023-02-09T12:52:24.997Z,98974.25
2023-02-09T12:54:55.511Z,98974.25
2023-02-09T12:57:54.062Z,98970.66
2023-02-09T13:00:55.560Z,98974.25
2023-02-09T13:03:24.642Z,98958.13
2023-02-09T13:05:52.745Z,98964.34
2023-02-09T13:08:25.170Z,98959.94
2023-02-09T13:10:57.672Z,98953.69
2023-02-09T13:13:30.079Z,98960.84
2023-02-09T13:16:32.351Z,98950.09
2023-02-09T13:19:03.804Z,98956.38
2023-02-09T13:21:35.876Z,98950.09
2023-02-09T13:24:04.981Z,98948.31
2023-02-09T13:26:35.040Z,98937.56
2023-02-09T13:29:19.882Z,98951.88
2023-02-09T13:31:55.684Z,98940.25
2023-02-09T13:34:31.984Z,98938.44
2023-02-09T13:37:05.623Z,98932.19
2023-02-09T13:39:36.379Z,98929.59
2023-02-09T13:42:17.295Z,98925.09
2023-02-09T13:44:45.706Z,98921.47
2023-02-09T13:47:14.816Z,98922.34
2023-02-09T13:49:43.009Z,98924.97
2023-02-09T13:52:15.236Z,98920.56
2023-02-09T13:54:43.672Z,98921.41
2023-02-09T13:57:18.929Z,98918.78
2023-02-09T13:59:47.067Z,98921.41
2023-02-09T14:02:18.456Z,98916.09
2023-02-09T14:04:46.778Z,98913.41
2023-02-09T14:07:14.799Z,98907.22
2023-02-09T14:09:45.098Z,98913.41
2023-02-09T14:12:15.374Z,98910.72
2023-02-09T14:15:01.761Z,98907.22
2023-02-09T14:17:30.746Z,98907.22
2023-02-09T14:19:59.474Z,98904.59
2023-02-09T14:22:31.304Z,98913.53
2023-02-09T14:24:59.382Z,98911.72
2023-02-09T14:27:29.294Z,98921.59
2023-02-09T14:29:57.380Z,98914.53
2023-02-09T14:32:35.447Z,98917.97
2023-02-09T14:35:11.604Z,98915.94
2023-02-09T14:37:45.386Z,98925.63
2023-02-09T14:40:21.207Z,98921.97
2023-02-09T14:43:22.246Z,98920.09
2023-02-09T14:45:58.606Z,98920.91
2023-02-09T14:48:27.344Z,98908.31
2023-02-09T14:50:56.256Z,98914.50
2023-02-09T14:53:25.044Z,98913.66
2023-02-09T14:55:53.531Z,98916.34
2023-02-09T14:58:24.044Z,98927.03
2023-02-09T15:00:52.884Z,98916.28
2023-02-09T15:03:21.130Z,98915.31
2023-02-09T15:05:49.550Z,98918.81
2023-02-09T15:08:20.092Z,98910.78
2023-02-09T15:10:48.893Z,98909.97
2023-02-09T15:13:17.059Z,98912.63
2023-02-09T15:15:46.932Z,98902.97
2023-02-09T15:18:18.508Z,98901.16
2023-02-09T15:20:46.733Z,98905.63
2023-02-09T15:23:14.922Z,98900.28
2023-02-09T15:25:43.400Z,98913.69
2023-02-09T15:28:15.931Z,98896.72
2023-02-09T15:30:44.379Z,98895.91
2023-02-09T15:33:14.658Z,98905.78
2023-02-09T15:35:42.848Z,98904.97
2023-02-09T15:38:11.149Z,98906.81
2023-02-09T15:40:59.168Z,98908.69
2023-02-09T15:43:44.619Z,98908.69
2023-02-09T15:46:30.183Z,98912.28
2023-02-09T15:48:59.881Z,98915.13
2023-02-09T15:51:31.355Z,98916.00
2023-02-09T15:54:00.743Z,98908.88
2023-02-09T15:56:29.024Z,98917.03
2023-02-09T15:59:03.632Z,98915.28
2023-02-09T16:01:34.129Z,98916.16
2023-02-09T16:04:14.466Z,98926.00
2023-02-09T16:06:45.146Z,98918.91
2023-02-09T16:09:13.983Z,98917.06
2023-02-09T16:11:42.175Z,98924.31
2023-02-09T16:14:14.601Z,98925.34
2023-02-09T16:16:44.303Z,98927.06
2023-02-09T16:19:13.993Z,98921.69
2023-02-09T16:21:43.640Z,98925.25
2023-02-09T16:24:17.845Z,98927.94
2023-02-09T16:26:46.042Z,98927.94
2023-02-09T16:29:14.420Z,98932.44
2023-02-09T16:31:42.628Z,98930.69
2023-02-09T16:34:15.273Z,98932.50
2023-02-09T16:36:47.108Z,98928.91
2023-02-09T16:39:18.397Z,98931.59
2023-02-09T16:41:50.765Z,98928.09
2023-02-09T16:44:21.043Z,98929.88
2023-02-09T16:46:50.767Z,98936.94
2023-02-09T16:49:28.804Z,98944.06
2023-02-09T16:51:59.132Z,98948.47
2023-02-09T16:54:27.361Z,98943.09
2023-02-09T16:56:56.603Z,98943.91
2023-02-09T16:59:24.681Z,98946.56
2023-02-09T17:01:52.861Z,98949.19
2023-02-09T17:04:20.997Z,98947.31
2023-02-09T17:06:49.197Z,98956.28
2023-02-09T17:09:18.907Z,98958.06
2023-02-09T17:11:47.357Z,98957.19
2023-02-09T17:14:15.511Z,98967.84
2023-02-09T17:16:44.872Z,98967.00
2023-02-09T17:19:15.990Z,98967.91
2023-02-09T17:21:44.311Z,98970.66
2023-02-09T17:24:14.014Z,98981.50
2023-02-09T17:26:43.648Z,98975.22
2023-02-09T17:29:12.058Z,98979.63
2023-02-09T17:31:52.345Z,98984.16
2023-02-09T17:34:27.114Z,98985.88
2023-02-09T17:36:55.471Z,98984.16
2023-02-09T17:39:23.616Z,98986.88
2023-02-09T17:41:53.420Z,98984.19
2023-02-09T17:44:43.375Z,98981.50
2023-02-09T17:47:10.818Z,98976.94
2023-02-09T17:49:38.953Z,98979.59
2023-02-09T17:52:07.169Z,98975.09
2023-02-09T17:54:35.329Z,98978.66
2023-02-09T17:57:05.667Z,98968.81
2023-02-09T17:59:33.864Z,98975.06
2023-02-09T18:02:01.889Z,98977.69
2023-02-09T18:04:31.836Z,98975.91
2023-02-09T18:07:00.027Z,98979.47
2023-02-09T18:09:28.230Z,98988.41
2023-02-09T18:11:59.845Z,98999.09
2023-02-09T18:14:30.465Z,98992.00
2023-02-09T18:16:58.736Z,98999.97
2023-02-09T18:19:27.230Z,98998.16
2023-02-09T18:21:56.700Z,98988.28
2023-02-09T18:24:25.555Z,98990.16
2023-02-09T18:26:53.705Z,98993.72
2023-02-09T18:29:23.345Z,98988.28
2023-02-09T18:31:53.041Z,98993.66
2023-02-09T18:34:21.294Z,98996.41
2023-02-09T18:36:49.541Z,98999.97
2023-02-09T18:39:17.794Z,99002.66
2023-02-09T18:41:48.476Z,99005.34
2023-02-09T18:44:16.764Z,99002.66
2023-02-09T18:46:45.417Z,99008.03
2023-02-09T18:49:15.101Z,99002.66
2023-02-09T18:51:43.350Z,99009.72
2023-02-09T18:54:11.612Z,99003.41
2023-02-09T18:56:39.825Z,98996.31
2023-02-09T18:59:08.771Z,99000.72
2023-02-09T19:01:38.028Z,98997.16
2023-02-09T19:04:06.427Z,99001.72
2023-02-09T19:06:36.154Z,99007.03
2023-02-09T19:09:05.092Z,99008.78
2023-02-09T19:11:33.299Z,99011.47
2023-02-09T19:14:18.988Z,99009.75
2023-02-09T19:16:47.230Z,99009.75
2023-02-09T19:19:16.291Z,99011.53
2023-02-09T19:21:47.699Z,99013.31
2023-02-09T19:24:15.932Z,99006.16
2023-02-09T19:26:44.017Z,99007.97
2023-02-09T19:29:12.226Z,99002.66
2023-02-09T19:31:40.402Z,99000.72
2023-02-09T19:34:08.796Z,99004.16
2023-02-09T19:36:37.052Z,98997.88
2023-02-09T19:39:06.782Z,98998.69
2023-02-09T19:41:35.024Z,98994.22
2023-02-09T19:44:04.447Z,98999.50
2023-02-09T19:46:33.023Z,99005.72
2023-02-09T19:49:02.196Z,99000.34
2023-02-09T19:51:30.600Z,99003.91
2023-02-09T19:53:58.766Z,99011.00
2023-02-09T19:56:28.378Z,99005.63
2023-02-09T19:58:56.539Z,99005.72
2023-02-09T20:01:26.913Z,99005.63
2023-02-09T20:03:55.214Z,99002.97
2023-02-09T20:06:23.512Z,99010.94
2023-02-09T20:08:52.055Z,99013.63
2023-02-09T20:11:21.397Z,99008.25
2023-02-09T20:13:52.734Z,99007.34
2023-02-09T20:16:23.466Z,99003.78
2023-02-09T20:18:51.940Z,99009.16
2023-02-09T20:21:21.398Z,99006.47
2023-02-09T20:23:49.631Z,98994.81
2023-02-09T20:26:18.587Z,98998.34
2023-02-09T20:28:46.889Z,98995.66
2023-02-09T20:31:19.325Z,98995.66
2023-02-09T20:33:47.785Z,98997.41
2023-02-09T20:36:16.534Z,98999.22
2023-02-09T20:38:44.777Z,99002.78
2023-02-09T20:41:14.076Z,99000.09
2023-02-09T20:43:59.449Z,99000.09
2023-02-09T20:46:52.639Z,99002.78
2023-02-09T20:49:21.014Z,99002.78
2023-02-09T20:51:49.108Z,98997.41
2023-02-09T20:54:17.445Z,99001.00
2023-02-09T20:56:45.858Z,99009.03
2023-02-09T20:59:14.599Z,99014.41
2023-02-09T21:01:45.112Z,99009.03
2023-02-09T21:04:13.360Z,99007.22
2023-02-09T21:06:41.519Z,99004.53
2023-02-09T21:09:10.260Z,98996.47
2023-02-09T21:11:38.608Z,99003.69
2023-02-09T21:14:06.894Z,98988.47
2023-02-09T21:16:36.697Z,98986.69
2023-02-09T21:19:06.366Z,98983.09
2023-02-09T21:21:34.509Z,98986.69
2023-02-09T21:24:02.755Z,98984.06
2023-02-09T21:26:30.982Z,98984.97
2023-02-09T21:28:59.265Z,98987.72
2023-02-09T21:31:28.163Z,98991.28
2023-02-09T21:33:56.468Z,98988.63
2023-02-09T21:36:26.071Z,98989.47
2023-02-09T21:38:54.289Z,98989.53
2023-02-09T21:41:40.994Z,98982.34
2023-02-09T21:44:10.183Z,98986.84
2023-02-09T21:46:38.382Z,98986.84
2023-02-09T21:49:06.588Z,98987.78
2023-02-09T21:51:36.256Z,98990.47
2023-02-09T21:54:04.492Z,98986.03
2023-02-09T21:56:32.679Z,98988.72
2023-02-09T21:59:00.940Z,98994.09
2023-02-09T22:01:30.643Z,98983.41
2023-02-09T22:03:58.874Z,99000.44
2023-02-09T22:06:27.122Z,98993.25
2023-02-09T22:08:56.786Z,98982.59
2023-02-09T22:11:24.985Z,98992.44
2023-02-09T22:13:53.228Z,98989.75
2023-02-09T22:16:22.640Z,98987.06
2023-02-09T22:18:50.876Z,98997.81
2023-02-09T22:21:19.230Z,98996.06
2023-02-09T22:23:47.771Z,99005.94
2023-02-09T22:26:17.344Z,99005.03
2023-02-09T22:28:46.738Z,99005.94
2023-02-09T22:31:15.993Z,99000.63
2023-02-09T22:33:44.150Z,99002.44
2023-02-09T22:36:13.390Z,98999.75
2023-02-09T22:38:41.856Z,98997.06
2023-02-09T22:41:21.482Z,98988.19
2023-02-09T22:43:52.460Z,98989.06
2023-02-09T22:46:20.795Z,98979.25
2023-02-09T22:48:52.528Z,98991.78
2023-02-09T22:51:21.132Z,98985.56
2023-02-09T22:53:49.271Z,98990.13
2023-02-09T22:56:17.618Z,98989.22
2023-02-09T22:58:45.795Z,98991.84
2023-02-09T23:01:15.645Z,98986.47
2023-02-09T23:03:43.987Z,98992.72
2023-02-09T23:06:16.088Z,98990.94
2023-02-09T23:08:44.585Z,98982.88
2023-02-09T23:11:13.558Z,98979.38
2023-02-09T23:13:42.018Z,98986.47
2023-02-09T23:16:11.001Z,98979.38
2023-02-09T23:18:40.880Z,98974.94
2023-02-09T23:21:09.378Z,98974.09
2023-02-09T23:23:37.511Z,98987.53
2023-02-09T23:26:05.732Z,98979.53
2023-02-09T23:28:33.940Z,98984.03
2023-02-09T23:31:04.984Z,98992.97
2023-02-09T23:33:33.276Z,98993.03
2023-02-09T23:36:05.615Z,98987.66
2023-02-09T23:38:34.011Z,98984.09
2023-02-09T23:41:06.727Z,98982.31
2023-02-09T23:43:34.949Z,98971.59
2023-02-09T23:46:03.126Z,98971.59
2023-02-09T23:48:31.420Z,98970.75
2023-02-09T23:51:00.955Z,98973.44
2023-02-09T23:53:30.682Z,98977.09
2023-02-09T23:56:03.792Z,98979.75
2023-02-09T23:58:32.393Z,98969.03
